Flight Track Log - Related Links

Times and Time Zones

All times are in EDT time to prevent confusion due to time zone crossing. See the N9226R flight status page for this flight to view local times or setup timezone preferences in your user account.

Time Position Orientation Groundspeed Altitude Reporting Facility
EDT Latitude Longitude Course Direction KTS MPH feet Rate Location/Type
Sat 11:25:17 AM 29.4611 -81.1300 163° South 113 130 5,500  Level Jacksonville Center
Sat 11:26:18 AM 29.4294 -81.1186 162° South 115 132 5,500  Level Jacksonville Center
Sat 11:27:19 AM 29.3981 -81.1072 154° Southeast 114 131 5,500  Level Jacksonville Center
Sat 11:28:14 AM 29.3728 -81.0933 161° South 115 132 5,500  Level Jacksonville Center
Sat 11:29:21 AM 29.3392 -81.0797 146° Southeast 113 130 5,500  Level Jacksonville Center
Sat 11:30:22 AM 29.3119 -81.0589 161° South 113 130 5,500 49 Level Jacksonville Center
Sat 11:31:23 AM 29.2825 -81.0475 165° South 110 127 5,600  Climbing Jacksonville Center
Sat 11:32:23 AM 29.2531 -81.0383 170° South 111 128 5,500 -49 Descending Jacksonville Center
Sat 11:33:25 AM 29.2217 -81.0319 160° South 114 131 5,500  Level Jacksonville Center
Sat 11:34:19 AM 29.1944 -81.0206 152° Southeast 114 131 5,500  Level Jacksonville Center
Sat 11:36:27 AM 29.1333 -80.9833 139° Southeast 114 131 5,500  Level Orlando TRACON
Sat 11:37:21 AM 29.1167 -80.9667 156° South 113 130 5,500  Level Orlando TRACON
Sat 11:38:27 AM 29.0833 -80.9500 180° South 115 132 5,500  Level Orlando TRACON
Sat 11:39:27 AM 29.0500 -80.9500 156° South 111 128 5,500  Level Orlando TRACON
Sat 11:40:27 AM 29.0167 -80.9333 156° South 112 129 5,500 -50 Level Orlando TRACON
Sat 11:41:28 AM 28.9833 -80.9167 180° South 115 132 5,400  Descending Orlando TRACON
Sat 11:42:34 AM 28.9500 -80.9167 139° Southeast 110 127 5,500 50 Climbing Orlando TRACON
Sat 11:43:28 AM 28.9333 -80.9000 180° South 111 128 5,500  Level Orlando TRACON
Sat 11:44:29 AM 28.9000 -80.9000 180° South 108 124 5,500  Level Orlando TRACON
Sat 11:45:29 AM 28.8667 -80.9000 156° South 110 127 5,500 50 Level Orlando TRACON
Sat 11:46:29 AM 28.8333 -80.8833 156° South 110 127 5,600 50 Climbing Orlando TRACON
Sat 11:47:29 AM 28.8000 -80.8667 180° South 112 129 5,600 -50 Level Orlando TRACON
Sat 11:48:29 AM 28.7833 -80.8667 156° South 113 130 5,500 -50 Descending Orlando TRACON
Sat 11:49:30 AM 28.7500 -80.8500 180° South 110 127 5,500  Level Orlando TRACON
Sat 11:50:30 AM 28.7167 -80.8500 156° South 110 127 5,500  Level Orlando TRACON
Sat 11:51:30 AM 28.6833 -80.8333 139° Southeast 111 128 5,500  Level Orlando TRACON
Sat 11:52:30 AM 28.6667 -80.8167 180° South 112 129 5,500  Level Orlando TRACON
Sat 11:53:30 AM 28.6333 -80.8167 156° South 112 129 5,500  Level Orlando TRACON
Sat 11:54:24 AM 28.6000 -80.8000 180° South 111 128 5,500 -52 Level Orlando TRACON
Sat 11:55:25 AM 28.5667 -80.8000 180° South 110 127 5,400 -52 Descending Orlando TRACON
Sat 11:56:19 AM 28.5500 -80.8000 156° South 111 128 5,400 48 Level Orlando TRACON
Sat 11:57:31 AM 28.5167 -80.7833 180° South 107 123 5,500  Climbing Orlando TRACON
Sat 11:58:25 AM 28.4833 -80.7833 156° South 115 132 5,400  Descending Orlando TRACON
Sat 11:59:26 AM 28.4500 -80.7667 156° South 113 130 5,500 50 Climbing Orlando TRACON
Sat 12:00:26 PM 28.4167 -80.7500 180° South 109 125 5,500 50 Level Orlando TRACON
Sat 12:01:26 PM 28.4000 -80.7500 156° South 110 127 5,600 50 Climbing Orlando TRACON
Sat 12:02:26 PM 28.3667 -80.7333 180° South 112 129 5,600 -47 Level Orlando TRACON
Sat 12:03:33 PM 28.3333 -80.7333 156° South 115 132 5,500 -47 Descending Orlando TRACON
Sat 12:04:33 PM 28.3000 -80.7167 145° Southeast 116 133 5,500 -38 Level Orlando TRACON
Sat 12:06:13 PM 28.2600 -80.6844 160° South 116 133 5,400 -38 Descending Miami Center
Sat 12:07:13 PM 28.2292 -80.6717 160° South 116 133 5,400 50 Level Miami Center
Sat 12:08:14 PM 28.1983 -80.6589 155° Southeast 116 133 5,500 50 Climbing Miami Center
Sat 12:09:14 PM 28.1694 -80.6439 156° South 111 128 5,500 50 Level Miami Center
Sat 12:10:14 PM 28.1386 -80.6286 161° South 111 128 5,600  Climbing Miami Center
Sat 12:11:14 PM 28.1117 -80.6183 155° Southeast 111 128 5,500  Descending Miami Center
Sat 12:12:13 PM 28.0828 -80.6033 156° South 111 128 5,600 -50 Climbing Miami Center
Sat 12:13:13 PM 28.0519 -80.5881 157° South 111 128 5,400 -100 Descending Miami Center
Sat 12:14:13 PM 28.0208 -80.5731 160° South 116 133 5,400  Level Miami Center
Sat 12:15:13 PM 27.9900 -80.5603 152° Southeast 116 133 5,400  Level Miami Center
Sat 12:16:13 PM 27.9653 -80.5453 152° Southeast 116 133 5,400 50 Level Miami Center
Sat 12:17:13 PM 27.9367 -80.5278 164° South 110 127 5,500 100 Climbing Miami Center
Sat 12:18:13 PM 27.9056 -80.5175 152° Southeast 115 132 5,600 99 Climbing Miami Center
Sat 12:19:14 PM 27.8767 -80.5000 156° South 115 132 5,700  Climbing Miami Center
Sat 12:20:13 PM 27.8519 -80.4875 152° Southeast 115 132 5,600 -101 Descending Miami Center
Sat 12:21:13 PM 27.8231 -80.4703 136° Southeast 115 132 5,500 -99 Descending Miami Center
Sat 12:22:14 PM 27.7967 -80.4411 136° Southeast 115 132 5,400 -98 Descending Miami Center

Login

Don't have an account? Register now (free) for customized features, flight alerts, and more!